sensor_id;sensor_type;location;lat;lon;timestamp;pressure;altitude;pressure_sealevel;temperature;humidity
7433;BME280;32233;49.500;7.764;2023-04-22T00:01:14;97765.22;;;8.75;100.00
7433;BME280;32233;49.500;7.764;2023-04-22T00:03:41;97772.66;;;8.91;100.00
7433;BME280;32233;49.500;7.764;2023-04-22T00:06:10;97769.63;;;8.95;100.00
7433;BME280;32233;49.500;7.764;2023-04-22T00:08:37;97766.41;;;8.79;100.00
7433;BME280;32233;49.500;7.764;2023-04-22T00:11:03;97760.38;;;8.65;100.00
7433;BME280;32233;49.500;7.764;2023-04-22T00:13:30;97764.00;;;8.78;100.00
7433;BME280;32233;49.500;7.764;2023-04-22T00:15:56;97756.84;;;8.91;100.00
7433;BME280;32233;49.500;7.764;2023-04-22T00:18:23;97753.19;;;8.99;100.00
7433;BME280;32233;49.500;7.764;2023-04-22T00:20:50;97761.50;;;8.89;100.00
7433;BME280;32233;49.500;7.764;2023-04-22T00:23:16;97758.47;;;8.92;100.00
7433;BME280;32233;49.500;7.764;2023-04-22T00:25:43;97762.34;;;8.90;100.00
7433;BME280;32233;49.500;7.764;2023-04-22T00:28:09;97756.84;;;8.91;100.00
7433;BME280;32233;49.500;7.764;2023-04-22T00:30:36;97752.25;;;8.67;100.00
7433;BME280;32233;49.500;7.764;2023-04-22T00:33:03;97754.47;;;8.63;100.00
7433;BME280;32233;49.500;7.764;2023-04-22T00:35:30;97758.09;;;8.82;100.00
7433;BME280;32233;49.500;7.764;2023-04-22T00:37:56;97761.94;;;8.86;100.00
7433;BME280;32233;49.500;7.764;2023-04-22T00:40:23;97764.78;;;8.85;100.00
7433;BME280;32233;49.500;7.764;2023-04-22T00:42:50;97768.25;;;8.72;100.00
7433;BME280;32233;49.500;7.764;2023-04-22T00:45:18;97762.78;;;8.60;100.00
7433;BME280;32233;49.500;7.764;2023-04-22T00:47:45;97765.63;;;8.59;100.00
7433;BME280;32233;49.500;7.764;2023-04-22T00:50:12;97770.28;;;8.63;100.00
7433;BME280;32233;49.500;7.764;2023-04-22T00:52:39;97768.88;;;8.74;100.00
7433;BME280;32233;49.500;7.764;2023-04-22T00:55:06;97768.06;;;8.34;100.00
7433;BME280;32233;49.500;7.764;2023-04-22T00:57:32;97768.91;;;8.41;100.00
7433;BME280;32233;49.500;7.764;2023-04-22T01:00:04;97765.66;;;8.46;100.00
7433;BME280;32233;49.500;7.764;2023-04-22T01:02:31;97771.53;;;8.54;100.00
7433;BME280;32233;49.500;7.764;2023-04-22T01:04:58;97765.22;;;8.35;100.00
7433;BME280;32233;49.500;7.764;2023-04-22T01:07:26;97769.47;;;8.36;100.00
7433;BME280;32233;49.500;7.764;2023-04-22T01:09:53;97765.88;;;8.37;100.00
7433;BME280;32233;49.500;7.764;2023-04-22T01:12:19;97764.41;;;8.28;100.00
7433;BME280;32233;49.500;7.764;2023-04-22T01:14:46;97765.06;;;8.37;100.00
7433;BME280;32233;49.500;7.764;2023-04-22T01:17:14;97761.00;;;8.48;100.00
7433;BME280;32233;49.500;7.764;2023-04-22T01:19:42;97762.41;;;8.50;100.00
7433;BME280;32233;49.500;7.764;2023-04-22T01:22:12;97757.13;;;8.24;100.00
7433;BME280;32233;49.500;7.764;2023-04-22T01:24:39;97760.78;;;8.23;100.00
7433;BME280;32233;49.500;7.764;2023-04-22T01:27:07;97757.34;;;8.29;100.00
7433;BME280;32233;49.500;7.764;2023-04-22T01:29:35;97763.81;;;8.33;100.00
7433;BME280;32233;49.500;7.764;2023-04-22T01:32:04;97760.78;;;8.42;100.00
7433;BME280;32233;49.500;7.764;2023-04-22T01:34:31;97759.38;;;8.47;100.00
7433;BME280;32233;49.500;7.764;2023-04-22T01:36:58;97754.31;;;8.45;100.00
7433;BME280;32233;49.500;7.764;2023-04-22T01:39:24;97757.56;;;8.21;100.00
7433;BME280;32233;49.500;7.764;2023-04-22T01:41:52;97758.13;;;8.23;100.00
7433;BME280;32233;49.500;7.764;2023-04-22T01:44:18;97754.91;;;8.34;100.00
7433;BME280;32233;49.500;7.764;2023-04-22T01:46:45;97757.09;;;8.04;100.00
7433;BME280;32233;49.500;7.764;2023-04-22T01:49:12;97762.38;;;8.10;100.00
7433;BME280;32233;49.500;7.764;2023-04-22T01:51:38;97756.53;;;8.08;100.00
7433;BME280;32233;49.500;7.764;2023-04-22T01:54:05;97758.75;;;8.11;100.00
7433;BME280;32233;49.500;7.764;2023-04-22T01:56:32;97756.94;;;8.25;100.00
7433;BME280;32233;49.500;7.764;2023-04-22T01:58:59;97761.38;;;8.18;100.00
7433;BME280;32233;49.500;7.764;2023-04-22T02:01:29;97756.69;;;7.87;100.00
7433;BME280;32233;49.500;7.764;2023-04-22T02:03:56;97751.66;;;7.92;100.00
7433;BME280;32233;49.500;7.764;2023-04-22T02:06:23;97755.91;;;8.06;100.00
7433;BME280;32233;49.500;7.764;2023-04-22T02:08:49;97757.53;;;8.14;100.00
7433;BME280;32233;49.500;7.764;2023-04-22T02:11:16;97761.56;;;8.03;100.00
7433;BME280;32233;49.500;7.764;2023-04-22T02:13:43;97769.47;;;7.90;100.00
7433;BME280;32233;49.500;7.764;2023-04-22T02:16:10;97764.38;;;7.82;100.00
7433;BME280;32233;49.500;7.764;2023-04-22T02:18:37;97766.25;;;8.01;100.00
7433;BME280;32233;49.500;7.764;2023-04-22T02:21:06;97767.84;;;7.89;100.00
7433;BME280;32233;49.500;7.764;2023-04-22T02:23:33;97765.78;;;7.78;100.00
7433;BME280;32233;49.500;7.764;2023-04-22T02:25:59;97768.63;;;7.69;100.00
7433;BME280;32233;49.500;7.764;2023-04-22T02:28:27;97770.03;;;7.65;100.00
7433;BME280;32233;49.500;7.764;2023-04-22T02:30:54;97777.50;;;7.62;100.00
7433;BME280;32233;49.500;7.764;2023-04-22T02:33:21;97774.28;;;7.60;100.00
7433;BME280;32233;49.500;7.764;2023-04-22T02:35:50;97780.13;;;7.55;100.00
7433;BME280;32233;49.500;7.764;2023-04-22T02:38:17;97779.50;;;7.53;100.00
7433;BME280;32233;49.500;7.764;2023-04-22T02:40:44;97784.38;;;7.56;100.00
7433;BME280;32233;49.500;7.764;2023-04-22T02:43:11;97779.88;;;7.50;100.00
7433;BME280;32233;49.500;7.764;2023-04-22T02:45:38;97779.31;;;7.61;100.00
7433;BME280;32233;49.500;7.764;2023-04-22T02:48:06;97768.81;;;7.75;100.00
7433;BME280;32233;49.500;7.764;2023-04-22T02:50:34;97766.41;;;7.80;100.00
7433;BME280;32233;49.500;7.764;2023-04-22T02:53:01;97770.84;;;7.73;100.00
7433;BME280;32233;49.500;7.764;2023-04-22T02:55:27;97783.56;;;7.56;100.00
7433;BME280;32233;49.500;7.764;2023-04-22T02:57:54;97784.16;;;7.51;100.00
7433;BME280;32233;49.500;7.764;2023-04-22T03:00:21;97779.28;;;7.55;100.00
7433;BME280;32233;49.500;7.764;2023-04-22T03:02:48;97781.91;;;7.48;100.00
7433;BME280;32233;49.500;7.764;2023-04-22T03:05:17;97778.81;;;7.31;100.00
7433;BME280;32233;49.500;7.764;2023-04-22T03:07:44;97780.06;;;7.42;100.00
7433;BME280;32233;49.500;7.764;2023-04-22T03:10:14;97784.72;;;7.47;100.00
7433;BME280;32233;49.500;7.764;2023-04-22T03:12:40;97781.09;;;7.54;100.00
7433;BME280;32233;49.500;7.764;2023-04-22T03:15:07;97785.56;;;7.47;100.00
7433;BME280;32233;49.500;7.764;2023-04-22T03:17:34;97781.88;;;7.41;100.00
7433;BME280;32233;49.500;7.764;2023-04-22T03:20:05;97784.59;;;7.07;100.00
7433;BME280;32233;49.500;7.764;2023-04-22T03:22:32;97786.41;;;7.06;100.00
7433;BME280;32233;49.500;7.764;2023-04-22T03:25:00;97775.91;;;7.06;100.00
7433;BME280;32233;49.500;7.764;2023-04-22T03:27:28;97783.09;;;6.98;100.00
7433;BME280;32233;49.500;7.764;2023-04-22T03:29:54;97774.22;;;6.99;100.00
7433;BME280;32233;49.500;7.764;2023-04-22T03:32:21;97776.53;;;7.15;100.00
7433;BME280;32233;49.500;7.764;2023-04-22T03:34:57;97779.75;;;7.17;100.00
7433;BME280;32233;49.500;7.764;2023-04-22T03:37:25;97771.69;;;7.18;100.00
7433;BME280;32233;49.500;7.764;2023-04-22T03:39:51;97777.88;;;7.04;100.00
7433;BME280;32233;49.500;7.764;2023-04-22T03:42:18;97773.34;;;6.85;100.00
7433;BME280;32233;49.500;7.764;2023-04-22T03:44:44;97765.72;;;6.90;100.00
7433;BME280;32233;49.500;7.764;2023-04-22T03:47:12;97777.88;;;7.04;100.00
7433;BME280;32233;49.500;7.764;2023-04-22T03:49:44;97767.16;;;7.06;100.00
7433;BME280;32233;49.500;7.764;2023-04-22T03:52:11;97758.31;;;7.07;100.00
7433;BME280;32233;49.500;7.764;2023-04-22T03:54:44;97767.84;;;6.80;100.00
7433;BME280;32233;49.500;7.764;2023-04-22T03:57:11;97765.03;;;6.81;100.00
7433;BME280;32233;49.500;7.764;2023-04-22T03:59:39;97765.63;;;6.77;100.00
7433;BME280;32233;49.500;7.764;2023-04-22T04:02:06;97757.41;;;6.86;100.00
7433;BME280;32233;49.500;7.764;2023-04-22T04:04:34;97756.59;;;6.92;100.00
7433;BME280;32233;49.500;7.764;2023-04-22T04:07:03;97762.28;;;6.96;100.00
7433;BME280;32233;49.500;7.764;2023-04-22T04:09:30;97766.91;;;6.87;100.00
7433;BME280;32233;49.500;7.764;2023-04-22T04:11:58;97766.81;;;6.74;100.00
7433;BME280;32233;49.500;7.764;2023-04-22T04:14:29;97765.66;;;6.83;100.00
7433;BME280;32233;49.500;7.764;2023-04-22T04:16:56;97756.59;;;6.92;100.00
7433;BME280;32233;49.500;7.764;2023-04-22T04:19:25;97756.16;;;6.82;100.00
7433;BME280;32233;49.500;7.764;2023-04-22T04:21:52;97745.38;;;6.70;100.00
7433;BME280;32233;49.500;7.764;2023-04-22T04:24:20;97747.47;;;6.82;100.00
7433;BME280;32233;49.500;7.764;2023-04-22T04:26:49;97739.66;;;6.95;100.00
7433;BME280;32233;49.500;7.764;2023-04-22T04:29:20;97739.09;;;7.06;100.00
7433;BME280;32233;49.500;7.764;2023-04-22T04:32:02;97729.41;;;7.13;100.00
7433;BME280;32233;49.500;7.764;2023-04-22T04:34:30;97728.81;;;7.18;100.00
7433;BME280;32233;49.500;7.764;2023-04-22T04:37:01;97728.22;;;7.16;100.00
7433;BME280;32233;49.500;7.764;2023-04-22T04:39:37;97727.78;;;7.12;100.00
7433;BME280;32233;49.500;7.764;2023-04-22T04:42:04;97729.22;;;7.22;100.00
7433;BME280;32233;49.500;7.764;2023-04-22T04:44:39;97733.50;;;7.29;100.00
7433;BME280;32233;49.500;7.764;2023-04-22T04:47:06;97736.53;;;7.26;100.00
7433;BME280;32233;49.500;7.764;2023-04-22T04:49:33;97739.31;;;7.18;100.00
7433;BME280;32233;49.500;7.764;2023-04-22T04:52:06;97745.34;;;6.99;100.00
7433;BME280;32233;49.500;7.764;2023-04-22T04:54:35;97747.66;;;6.80;100.00
7433;BME280;32233;49.500;7.764;2023-04-22T04:57:04;97756.06;;;7.04;100.00
7433;BME280;32233;49.500;7.764;2023-04-22T04:59:32;97755.09;;;7.18;100.00
7433;BME280;32233;49.500;7.764;2023-04-22T05:01:58;97753.22;;;6.99;100.00
7433;BME280;32233;49.500;7.764;2023-04-22T05:04:27;97760.44;;;6.90;100.00
7433;BME280;32233;49.500;7.764;2023-04-22T05:06:55;97767.50;;;6.55;100.00
7433;BME280;32233;49.500;7.764;2023-04-22T05:09:22;97779.31;;;6.65;100.00
7433;BME280;32233;49.500;7.764;2023-04-22T05:11:50;97783.00;;;6.78;100.00
7433;BME280;32233;49.500;7.764;2023-04-22T05:14:19;97779.59;;;6.84;100.00
7433;BME280;32233;49.500;7.764;2023-04-22T05:16:46;97790.94;;;6.56;100.00
7433;BME280;32233;49.500;7.764;2023-04-22T05:19:14;97786.16;;;6.38;100.00
7433;BME280;32233;49.500;7.764;2023-04-22T05:21:41;97797.84;;;6.57;100.00
7433;BME280;32233;49.500;7.764;2023-04-22T05:24:08;97789.25;;;6.77;100.00
7433;BME280;32233;49.500;7.764;2023-04-22T05:26:35;97786.75;;;6.97;100.00
7433;BME280;32233;49.500;7.764;2023-04-22T05:29:07;97790.09;;;8.00;100.00
7433;BME280;32233;49.500;7.764;2023-04-22T05:31:34;97793.19;;;9.34;100.00
7433;BME280;32233;49.500;7.764;2023-04-22T05:34:00;97787.66;;;10.26;95.99
7433;BME280;32233;49.500;7.764;2023-04-22T05:36:27;97786.38;;;10.97;90.72
7433;BME280;32233;49.500;7.764;2023-04-22T05:38:57;97780.66;;;11.00;87.30
7433;BME280;32233;49.500;7.764;2023-04-22T05:41:24;97784.38;;;11.77;84.29
7433;BME280;32233;49.500;7.764;2023-04-22T05:43:52;97778.97;;;12.02;81.56
7433;BME280;32233;49.500;7.764;2023-04-22T05:46:19;97789.09;;;12.59;77.51
7433;BME280;32233;49.500;7.764;2023-04-22T05:48:56;97776.97;;;14.24;68.71
7433;BME280;32233;49.500;7.764;2023-04-22T05:51:46;97782.41;;;14.63;66.98
7433;BME280;32233;49.500;7.764;2023-04-22T05:54:16;97785.81;;;14.97;64.29
7433;BME280;32233;49.500;7.764;2023-04-22T05:56:42;97778.19;;;15.94;61.01
7433;BME280;32233;49.500;7.764;2023-04-22T05:59:09;97780.19;;;16.08;59.51
7433;BME280;32233;49.500;7.764;2023-04-22T06:01:36;97778.59;;;15.80;60.66
7433;BME280;32233;49.500;7.764;2023-04-22T06:04:06;97768.47;;;16.42;59.31
7433;BME280;32233;49.500;7.764;2023-04-22T06:06:35;97765.19;;;17.14;56.57
7433;BME280;32233;49.500;7.764;2023-04-22T06:09:02;97771.38;;;17.25;56.06
7433;BME280;32233;49.500;7.764;2023-04-22T06:11:29;97760.13;;;17.18;54.78
7433;BME280;32233;49.500;7.764;2023-04-22T06:13:55;97759.66;;;16.09;57.45
7433;BME280;32233;49.500;7.764;2023-04-22T06:16:22;97757.16;;;15.70;60.88
7433;BME280;32233;49.500;7.764;2023-04-22T06:18:49;97760.47;;;16.09;58.71
7433;BME280;32233;49.500;7.764;2023-04-22T06:21:15;97761.47;;;14.89;63.99
7433;BME280;32233;49.500;7.764;2023-04-22T06:23:42;97758.59;;;14.90;64.48
7433;BME280;32233;49.500;7.764;2023-04-22T06:26:08;97766.19;;;14.14;68.03
7433;BME280;32233;49.500;7.764;2023-04-22T06:28:36;97765.25;;;13.63;71.83
7433;BME280;32233;49.500;7.764;2023-04-22T06:31:16;97759.44;;;13.78;73.79
7433;BME280;32233;49.500;7.764;2023-04-22T06:33:45;97764.03;;;15.22;67.72
7433;BME280;32233;49.500;7.764;2023-04-22T06:36:12;97758.50;;;16.32;63.51
7433;BME280;32233;49.500;7.764;2023-04-22T06:38:39;97760.00;;;17.55;58.75
7433;BME280;32233;49.500;7.764;2023-04-22T06:41:21;97756.13;;;18.44;55.21
7433;BME280;32233;49.500;7.764;2023-04-22T06:43:50;97758.34;;;19.38;52.88
7433;BME280;32233;49.500;7.764;2023-04-22T06:46:17;97760.56;;;19.10;53.13
7433;BME280;32233;49.500;7.764;2023-04-22T06:48:49;97755.81;;;20.45;48.81
7433;BME280;32233;49.500;7.764;2023-04-22T06:51:36;97745.00;;;22.27;44.61
7433;BME280;32233;49.500;7.764;2023-04-22T06:54:02;97745.22;;;21.36;46.21
7433;BME280;32233;49.500;7.764;2023-04-22T06:56:29;97741.66;;;21.41;47.49
7433;BME280;32233;49.500;7.764;2023-04-22T06:58:56;97741.22;;;22.61;44.68
7433;BME280;32233;49.500;7.764;2023-04-22T07:01:23;97747.06;;;22.49;43.78
7433;BME280;32233;49.500;7.764;2023-04-22T07:03:49;97750.06;;;21.10;46.24
7433;BME280;32233;49.500;7.764;2023-04-22T07:06:17;97750.16;;;22.42;43.72
7433;BME280;32233;49.500;7.764;2023-04-22T07:08:44;97748.59;;;21.85;42.64
7433;BME280;32233;49.500;7.764;2023-04-22T07:11:11;97743.63;;;21.92;43.08
7433;BME280;32233;49.500;7.764;2023-04-22T07:13:56;97748.16;;;21.59;46.03
7433;BME280;32233;49.500;7.764;2023-04-22T07:16:23;97754.63;;;21.10;45.54
7433;BME280;32233;49.500;7.764;2023-04-22T07:18:50;97750.84;;;22.48;42.31
7433;BME280;32233;49.500;7.764;2023-04-22T07:21:16;97743.25;;;22.83;44.08
7433;BME280;32233;49.500;7.764;2023-04-22T07:23:43;97748.56;;;23.29;39.38
7433;BME280;32233;49.500;7.764;2023-04-22T07:26:09;97745.97;;;23.52;39.96
7433;BME280;32233;49.500;7.764;2023-04-22T07:28:36;97747.34;;;23.49;38.25
7433;BME280;32233;49.500;7.764;2023-04-22T07:31:02;97748.09;;;23.27;40.86
7433;BME280;32233;49.500;7.764;2023-04-22T07:33:29;97732.19;;;24.12;40.15
7433;BME280;32233;49.500;7.764;2023-04-22T07:35:55;97731.34;;;23.66;40.31
7433;BME280;32233;49.500;7.764;2023-04-22T07:38:22;97735.44;;;23.78;37.42
7433;BME280;32233;49.500;7.764;2023-04-22T07:40:48;97730.81;;;23.28;36.29
7433;BME280;32233;49.500;7.764;2023-04-22T07:43:15;97721.47;;;23.98;34.50
7433;BME280;32233;49.500;7.764;2023-04-22T07:45:42;97722.81;;;24.09;35.17
7433;BME280;32233;49.500;7.764;2023-04-22T07:48:09;97716.53;;;26.08;32.18
7433;BME280;32233;49.500;7.764;2023-04-22T07:50:35;97719.06;;;25.04;33.01
7433;BME280;32233;49.500;7.764;2023-04-22T07:53:04;97721.78;;;26.22;32.10
7433;BME280;32233;49.500;7.764;2023-04-22T07:55:31;97715.44;;;26.09;31.77
7433;BME280;32233;49.500;7.764;2023-04-22T07:57:57;97715.06;;;25.58;33.59
7433;BME280;32233;49.500;7.764;2023-04-22T08:00:26;97706.31;;;25.44;31.01
7433;BME280;32233;49.500;7.764;2023-04-22T08:02:52;97715.75;;;25.07;31.62
7433;BME280;32233;49.500;7.764;2023-04-22T08:05:19;97715.69;;;24.98;31.69
7433;BME280;32233;49.500;7.764;2023-04-22T08:07:46;97712.22;;;26.07;30.21
7433;BME280;32233;49.500;7.764;2023-04-22T08:10:12;97717.53;;;24.49;31.56
7433;BME280;32233;49.500;7.764;2023-04-22T08:12:39;97697.41;;;23.65;31.30
7433;BME280;32233;49.500;7.764;2023-04-22T08:15:06;97705.22;;;23.89;31.72
7433;BME280;32233;49.500;7.764;2023-04-22T08:17:32;97696.66;;;23.73;30.72
7433;BME280;32233;49.500;7.764;2023-04-22T08:19:59;97713.59;;;23.88;30.59
7433;BME280;32233;49.500;7.764;2023-04-22T08:22:26;97706.66;;;23.73;30.37
7433;BME280;32233;49.500;7.764;2023-04-22T08:24:52;97716.78;;;22.24;33.79
7433;BME280;32233;49.500;7.764;2023-04-22T08:27:22;97709.66;;;21.96;35.86
7433;BME280;32233;49.500;7.764;2023-04-22T08:29:48;97704.97;;;21.50;34.61
7433;BME280;32233;49.500;7.764;2023-04-22T08:32:15;97703.00;;;21.74;36.01
7433;BME280;32233;49.500;7.764;2023-04-22T08:34:42;97700.22;;;21.23;34.82
7433;BME280;32233;49.500;7.764;2023-04-22T08:37:09;97704.19;;;20.83;34.92
7433;BME280;32233;49.500;7.764;2023-04-22T08:39:35;97690.13;;;20.67;36.78
7433;BME280;32233;49.500;7.764;2023-04-22T08:42:02;97706.09;;;21.01;37.11
7433;BME280;32233;49.500;7.764;2023-04-22T08:44:30;97699.03;;;20.86;35.50
7433;BME280;32233;49.500;7.764;2023-04-22T08:46:57;97694.66;;;21.14;34.59
7433;BME280;32233;49.500;7.764;2023-04-22T08:49:29;97705.22;;;21.30;33.55
7433;BME280;32233;49.500;7.764;2023-04-22T08:51:55;97694.78;;;21.04;34.33
7433;BME280;32233;49.500;7.764;2023-04-22T08:54:22;97691.25;;;21.51;34.13
7433;BME280;32233;49.500;7.764;2023-04-22T08:56:49;97699.03;;;21.53;33.71
7433;BME280;32233;49.500;7.764;2023-04-22T08:59:17;97694.66;;;21.57;33.41
7433;BME280;32233;49.500;7.764;2023-04-22T09:01:46;97694.06;;;21.98;33.37
7433;BME280;32233;49.500;7.764;2023-04-22T09:04:15;97689.97;;;22.93;33.87
7433;BME280;32233;49.500;7.764;2023-04-22T09:06:44;97687.66;;;22.87;32.82
7433;BME280;32233;49.500;7.764;2023-04-22T09:09:10;97680.25;;;22.51;31.17
7433;BME280;32233;49.500;7.764;2023-04-22T09:11:37;97679.25;;;22.33;32.98
7433;BME280;32233;49.500;7.764;2023-04-22T09:14:03;97677.97;;;22.58;32.17
7433;BME280;32233;49.500;7.764;2023-04-22T09:16:31;97673.41;;;23.00;32.50
7433;BME280;32233;49.500;7.764;2023-04-22T09:18:58;97667.69;;;22.46;31.98
7433;BME280;32233;49.500;7.764;2023-04-22T09:21:25;97652.91;;;23.27;31.03
7433;BME280;32233;49.500;7.764;2023-04-22T09:23:54;97662.00;;;23.17;31.92
7433;BME280;32233;49.500;7.764;2023-04-22T09:26:22;97651.00;;;22.44;32.20
7433;BME280;32233;49.500;7.764;2023-04-22T09:28:51;97657.34;;;22.67;34.45
7433;BME280;32233;49.500;7.764;2023-04-22T09:31:18;97656.34;;;22.63;32.87
7433;BME280;32233;49.500;7.764;2023-04-22T09:33:55;97654.00;;;23.39;32.68
7433;BME280;32233;49.500;7.764;2023-04-22T09:36:28;97650.72;;;22.73;32.92
7433;BME280;32233;49.500;7.764;2023-04-22T09:39:00;97645.63;;;22.31;32.99
7433;BME280;32233;49.500;7.764;2023-04-22T09:41:28;97645.78;;;22.20;32.89
7433;BME280;32233;49.500;7.764;2023-04-22T09:43:56;97655.44;;;22.54;32.20
7433;BME280;32233;49.500;7.764;2023-04-22T09:46:24;97669.84;;;21.98;32.65
7433;BME280;32233;49.500;7.764;2023-04-22T09:48:53;97662.09;;;21.77;32.43
7433;BME280;32233;49.500;7.764;2023-04-22T09:51:21;97654.81;;;21.59;33.03
7433;BME280;32233;49.500;7.764;2023-04-22T09:53:58;97658.09;;;22.27;33.15
7433;BME280;32233;49.500;7.764;2023-04-22T09:59:16;97670.03;;;21.50;36.70
7433;BME280;32233;49.500;7.764;2023-04-22T10:01:44;97666.84;;;21.99;33.18
7433;BME280;32233;49.500;7.764;2023-04-22T10:04:11;97664.56;;;22.25;33.17
7433;BME280;32233;49.500;7.764;2023-04-22T10:06:42;97663.44;;;22.13;34.16
7433;BME280;32233;49.500;7.764;2023-04-22T10:09:09;97652.59;;;22.18;32.33
7433;BME280;32233;49.500;7.764;2023-04-22T10:11:36;97665.69;;;22.38;32.91
7433;BME280;32233;49.500;7.764;2023-04-22T10:14:03;97659.94;;;23.50;32.45
7433;BME280;32233;49.500;7.764;2023-04-22T10:16:31;97659.63;;;24.10;31.66
7433;BME280;32233;49.500;7.764;2023-04-22T10:19:00;97649.19;;;23.95;32.08
7433;BME280;32233;49.500;7.764;2023-04-22T10:21:29;97650.78;;;23.96;32.38
7433;BME280;32233;49.500;7.764;2023-04-22T10:23:57;97656.91;;;23.88;33.65
7433;BME280;32233;49.500;7.764;2023-04-22T10:26:54;97649.94;;;23.51;31.89
7433;BME280;32233;49.500;7.764;2023-04-22T10:29:24;97654.34;;;22.96;32.33
7433;BME280;32233;49.500;7.764;2023-04-22T10:34:46;97658.03;;;21.61;34.38
7433;BME280;32233;49.500;7.764;2023-04-22T10:37:16;97649.41;;;21.97;34.49
7433;BME280;32233;49.500;7.764;2023-04-22T10:40:10;97644.25;;;22.61;32.26
7433;BME280;32233;49.500;7.764;2023-04-22T10:42:42;97654.00;;;21.96;32.30
7433;BME280;32233;49.500;7.764;2023-04-22T10:45:12;97656.59;;;22.01;33.34
7433;BME280;32233;49.500;7.764;2023-04-22T10:47:43;97648.56;;;21.83;33.11
7433;BME280;32233;49.500;7.764;2023-04-22T10:50:15;97652.88;;;21.46;34.22
7433;BME280;32233;49.500;7.764;2023-04-22T10:52:46;97666.69;;;21.58;33.19
7433;BME280;32233;49.500;7.764;2023-04-22T10:55:13;97668.28;;;22.11;32.85
7433;BME280;32233;49.500;7.764;2023-04-22T10:57:42;97652.81;;;22.35;32.33
7433;BME280;32233;49.500;7.764;2023-04-22T11:00:29;97664.53;;;21.17;34.77
7433;BME280;32233;49.500;7.764;2023-04-22T11:03:13;97678.59;;;20.90;34.82
7433;BME280;32233;49.500;7.764;2023-04-22T11:05:40;97668.38;;;21.11;35.70
7433;BME280;32233;49.500;7.764;2023-04-22T11:08:12;97686.81;;;22.12;34.73
7433;BME280;32233;49.500;7.764;2023-04-22T11:10:43;97670.91;;;23.54;32.31
7433;BME280;32233;49.500;7.764;2023-04-22T11:13:15;97663.19;;;23.75;32.88
7433;BME280;32233;49.500;7.764;2023-04-22T11:15:44;97669.72;;;23.60;33.26
7433;BME280;32233;49.500;7.764;2023-04-22T11:18:25;97660.63;;;24.85;30.23
7433;BME280;32233;49.500;7.764;2023-04-22T11:20:53;97655.16;;;24.68;30.10
7433;BME280;32233;49.500;7.764;2023-04-22T11:23:21;97646.97;;;24.42;30.38
7433;BME280;32233;49.500;7.764;2023-04-22T11:28:22;97676.81;;;23.19;32.93
7433;BME280;32233;49.500;7.764;2023-04-22T11:30:49;97651.56;;;24.90;31.49
7433;BME280;32233;49.500;7.764;2023-04-22T11:33:19;97660.19;;;24.92;29.47
7433;BME280;32233;49.500;7.764;2023-04-22T11:35:48;97661.66;;;23.46;30.62
7433;BME280;32233;49.500;7.764;2023-04-22T11:38:14;97675.03;;;21.38;33.37
7433;BME280;32233;49.500;7.764;2023-04-22T11:40:41;97673.66;;;20.15;36.29
7433;BME280;32233;49.500;7.764;2023-04-22T11:43:12;97683.72;;;19.65;36.87
7433;BME280;32233;49.500;7.764;2023-04-22T11:45:38;97691.00;;;19.94;37.60
7433;BME280;32233;49.500;7.764;2023-04-22T11:48:07;97689.28;;;19.74;38.40
7433;BME280;32233;49.500;7.764;2023-04-22T11:50:36;97689.09;;;19.60;40.56
7433;BME280;32233;49.500;7.764;2023-04-22T11:55:45;97707.63;;;18.92;42.40
7433;BME280;32233;49.500;7.764;2023-04-22T11:58:14;97705.31;;;18.34;42.41
7433;BME280;32233;49.500;7.764;2023-04-22T12:00:44;97707.47;;;18.01;42.34
7433;BME280;32233;49.500;7.764;2023-04-22T12:05:45;97716.28;;;18.02;43.12
7433;BME280;32233;49.500;7.764;2023-04-22T12:08:16;97715.50;;;18.01;44.47
7433;BME280;32233;49.500;7.764;2023-04-22T12:15:45;97716.72;;;17.58;46.37
7433;BME280;32233;49.500;7.764;2023-04-22T12:18:11;97713.53;;;17.61;47.18
7433;BME280;32233;49.500;7.764;2023-04-22T12:20:39;97718.28;;;17.39;48.66
7433;BME280;32233;49.500;7.764;2023-04-22T12:23:13;97725.19;;;17.29;46.07
7433;BME280;32233;49.500;7.764;2023-04-22T12:25:41;97720.94;;;17.28;46.95
7433;BME280;32233;49.500;7.764;2023-04-22T12:28:08;97727.88;;;17.29;46.84
7433;BME280;32233;49.500;7.764;2023-04-22T12:30:35;97730.53;;;17.24;46.66
7433;BME280;32233;49.500;7.764;2023-04-22T12:33:02;97724.03;;;17.05;46.88
7433;BME280;32233;49.500;7.764;2023-04-22T12:35:28;97723.31;;;17.20;48.49
7433;BME280;32233;49.500;7.764;2023-04-22T12:37:55;97729.38;;;17.10;47.87
7433;BME280;32233;49.500;7.764;2023-04-22T12:40:21;97728.81;;;16.98;48.10
7433;BME280;32233;49.500;7.764;2023-04-22T12:42:48;97730.47;;;17.09;47.80
7433;BME280;32233;49.500;7.764;2023-04-22T12:45:14;97735.28;;;17.12;47.72
7433;BME280;32233;49.500;7.764;2023-04-22T12:47:42;97731.81;;;17.12;48.39
7433;BME280;32233;49.500;7.764;2023-04-22T12:50:08;97741.19;;;17.19;49.84
7433;BME280;32233;49.500;7.764;2023-04-22T12:52:35;97754.25;;;17.16;49.56
7433;BME280;32233;49.500;7.764;2023-04-22T12:55:01;97752.28;;;16.53;49.32
7433;BME280;32233;49.500;7.764;2023-04-22T12:57:28;97760.50;;;16.47;49.11
7433;BME280;32233;49.500;7.764;2023-04-22T12:59:54;97746.69;;;16.18;50.92
7433;BME280;32233;49.500;7.764;2023-04-22T13:02:21;97762.75;;;15.69;51.92
7433;BME280;32233;49.500;7.764;2023-04-22T13:04:48;97765.66;;;15.45;53.65
7433;BME280;32233;49.500;7.764;2023-04-22T13:07:15;97774.69;;;15.22;55.70
7433;BME280;32233;49.500;7.764;2023-04-22T13:09:42;97769.06;;;15.41;54.53
7433;BME280;32233;49.500;7.764;2023-04-22T13:12:10;97776.00;;;15.20;54.31
7433;BME280;32233;49.500;7.764;2023-04-22T13:14:37;97769.19;;;15.07;54.18
7433;BME280;32233;49.500;7.764;2023-04-22T13:17:03;97769.34;;;15.22;54.03
7433;BME280;32233;49.500;7.764;2023-04-22T13:19:30;97767.94;;;15.15;54.12
7433;BME280;32233;49.500;7.764;2023-04-22T13:21:57;97770.72;;;15.25;54.05
7433;BME280;32233;49.500;7.764;2023-04-22T13:24:23;97755.75;;;15.41;54.05
7433;BME280;32233;49.500;7.764;2023-04-22T13:26:50;97758.78;;;15.27;52.96
7433;BME280;32233;49.500;7.764;2023-04-22T13:29:16;97757.28;;;15.36;53.65
7433;BME280;32233;49.500;7.764;2023-04-22T13:31:43;97750.38;;;15.63;53.17
7433;BME280;32233;49.500;7.764;2023-04-22T13:34:12;97744.25;;;15.35;52.78